Time;durP1;ratioP1;P1;durP2;ratioP2;P2;SDS_P1;SDS_P2;PMS_P1;PMS_P2;Temp;Humidity;BMP_temperature;BMP_pressure;BME280_temperature;BME280_humidity;BME280_pressure;Samples;Min_cycle;Max_cycle;Signal;HPM_P1;HPM_P2
2023/05/27 00:00:04;;;;;;;17.75;4.40;;;9.80;96.10;;;;;;5074996;28;20044;-71
2023/05/27 00:02:30;;;;;;;11.82;3.70;;;9.70;96.20;;;;;;5058271;28;20111;-71
2023/05/27 00:04:56;;;;;;;14.20;3.78;;;9.70;96.40;;;;;;5075091;28;20166;-71
2023/05/27 00:07:22;;;;;;;15.48;4.18;;;9.70;96.40;;;;;;5075000;28;20051;-71
2023/05/27 00:09:47;;;;;;;14.63;3.90;;;9.60;96.60;;;;;;5075266;28;20040;-71
2023/05/27 00:12:13;;;;;;;13.00;4.22;;;9.60;96.70;;;;;;5074923;28;20042;-71
2023/05/27 00:14:38;;;;;;;10.40;3.53;;;9.60;96.80;;;;;;5074938;28;20044;-71
2023/05/27 00:17:04;;;;;;;13.05;3.97;;;9.60;96.80;;;;;;5058170;28;20036;-71
2023/05/27 00:19:30;;;;;;;11.80;4.38;;;9.50;96.60;;;;;;5075186;28;20028;-71
2023/05/27 00:21:57;;;;;;;12.20;4.22;;;9.50;96.80;;;;;;5074962;28;20036;-71
2023/05/27 00:24:22;;;;;;;19.63;7.10;;;9.50;96.90;;;;;;5074869;28;20501;-71
2023/05/27 00:26:48;;;;;;;15.55;4.72;;;9.40;96.90;;;;;;5074891;28;20090;-71
2023/05/27 00:29:16;;;;;;;12.50;4.30;;;9.40;96.90;;;;;;5058105;28;20082;-71
2023/05/27 00:31:41;;;;;;;13.85;4.18;;;9.40;97.00;;;;;;5074733;28;20036;-71
2023/05/27 00:34:07;;;;;;;19.00;4.55;;;9.40;97.10;;;;;;5075047;28;20113;-71
2023/05/27 00:36:33;;;;;;;12.55;3.90;;;9.40;97.30;;;;;;5074906;28;20036;-71
2023/05/27 00:39:00;;;;;;;9.80;3.58;;;9.30;97.40;;;;;;5074725;28;20075;-71
2023/05/27 00:41:26;;;;;;;13.35;3.58;;;9.30;97.50;;;;;;5076145;28;20438;-71
2023/05/27 00:43:52;;;;;;;13.93;4.38;;;9.30;97.50;;;;;;5062163;28;20044;-71
2023/05/27 00:46:18;;;;;;;11.65;4.00;;;9.20;97.60;;;;;;5078513;28;20079;-71
2023/05/27 00:48:45;;;;;;;10.73;4.00;;;9.10;97.50;;;;;;5078631;28;20055;-71
2023/05/27 00:51:11;;;;;;;16.13;3.88;;;9.10;97.70;;;;;;5078521;28;20126;-71
2023/05/27 00:53:42;;;;;;;12.63;3.65;;;9.00;97.70;;;;;;5078382;28;20123;-71
2023/05/27 00:56:09;;;;;;;13.43;3.70;;;9.00;97.90;;;;;;5078436;28;20044;-71
2023/05/27 00:58:36;;;;;;;19.80;4.40;;;9.00;98.00;;;;;;5078530;28;20036;-71
2023/05/27 01:01:03;;;;;;;12.45;3.67;;;8.90;98.20;;;;;;5061643;28;20047;-71
2023/05/27 01:03:32;;;;;;;12.80;3.92;;;8.90;98.30;;;;;;5078427;28;20028;-71
2023/05/27 01:06:16;;;;;;;11.68;3.95;;;8.90;98.50;;;;;;5078052;28;20051;-71
2023/05/27 01:09:06;;;;;;;15.10;3.70;;;8.80;98.50;;;;;;5078366;28;20054;-71
2023/05/27 01:11:42;;;;;;;8.90;3.70;;;8.90;98.70;;;;;;5078417;28;20087;-71
2023/05/27 01:14:13;;;;;;;14.07;3.78;;;8.80;98.70;;;;;;5077894;28;20523;-71
2023/05/27 01:16:40;;;;;;;11.40;4.20;;;8.80;98.80;;;;;;5077834;28;20048;-71
2023/05/27 01:19:11;;;;;;;7.75;3.03;;;8.70;98.90;;;;;;5077866;28;20542;-71
2023/05/27 01:21:39;;;;;;;7.18;2.80;;;8.70;98.80;;;;;;5077759;28;20054;-71
2023/05/27 01:24:05;;;;;;;8.52;3.40;;;8.60;98.80;;;;;;5077797;28;20068;-71
2023/05/27 01:26:31;;;;;;;10.50;3.83;;;8.60;99.00;;;;;;5077720;28;20076;-71
2023/05/27 01:28:57;;;;;;;13.13;3.20;;;8.60;99.20;;;;;;5078000;28;20102;-71
2023/05/27 01:31:34;;;;;;;15.02;3.30;;;8.50;99.00;;;;;;5077547;28;20125;-71
2023/05/27 01:34:06;;;;;;;18.52;3.92;;;8.50;99.00;;;;;;5060947;28;20098;-71
2023/05/27 01:37:02;;;;;;;11.93;3.95;;;8.40;99.00;;;;;;5077494;28;20076;-71
2023/05/27 01:39:28;;;;;;;11.77;3.85;;;8.40;99.20;;;;;;5072847;28;20054;-71
2023/05/27 01:41:55;;;;;;;15.18;4.78;;;8.30;99.60;;;;;;5077372;28;20086;-71
2023/05/27 01:44:21;;;;;;;14.15;4.65;;;8.30;99.90;;;;;;5077410;28;20040;-71
2023/05/27 01:46:47;;;;;;;17.98;6.25;;;8.30;99.90;;;;;;5077581;28;20048;-71
2023/05/27 01:49:12;;;;;;;20.15;6.32;;;8.30;99.90;;;;;;5077397;28;20085;-71
2023/05/27 01:51:38;;;;;;;18.75;5.55;;;8.40;99.90;;;;;;5076960;28;20051;-71
2023/05/27 01:54:04;;;;;;;20.58;4.40;;;8.40;99.90;;;;;;5060826;28;20047;-71
2023/05/27 01:56:29;;;;;;;12.48;4.88;;;8.40;99.90;;;;;;5077156;28;20093;-71
2023/05/27 01:58:55;;;;;;;9.63;3.92;;;8.40;99.90;;;;;;5077216;28;20032;-71
2023/05/27 02:01:22;;;;;;;10.65;3.90;;;8.40;99.90;;;;;;5076921;28;20089;-71
2023/05/27 02:03:47;;;;;;;18.65;4.40;;;8.30;99.90;;;;;;5060569;28;20031;-71
2023/05/27 02:06:13;;;;;;;15.65;4.97;;;8.30;99.90;;;;;;5076989;28;20389;-71
2023/05/27 02:08:39;;;;;;;12.93;4.13;;;8.20;99.90;;;;;;5077168;28;20044;-71
2023/05/27 02:11:04;;;;;;;11.70;4.32;;;8.20;99.90;;;;;;5060436;28;20044;-71
2023/05/27 02:13:30;;;;;;;11.95;4.38;;;8.20;99.90;;;;;;5060172;28;20404;-71
2023/05/27 02:15:56;;;;;;;15.80;4.88;;;8.20;99.90;;;;;;5076800;28;20086;-71
2023/05/27 02:18:21;;;;;;;11.85;4.90;;;8.10;99.90;;;;;;5076706;28;20036;-71
2023/05/27 02:20:47;;;;;;;12.98;4.90;;;8.10;99.90;;;;;;5060232;28;20036;-71
2023/05/27 02:23:13;;;;;;;15.48;5.18;;;8.20;99.90;;;;;;5076970;28;20127;-71
2023/05/27 02:25:38;;;;;;;15.48;4.50;;;8.20;99.90;;;;;;5076661;28;20451;-71
2023/05/27 02:28:04;;;;;;;12.82;4.80;;;8.20;99.90;;;;;;5076808;28;20042;-71
2023/05/27 02:30:30;;;;;;;13.95;4.40;;;8.30;99.90;;;;;;5076483;28;20048;-71
2023/05/27 02:32:56;;;;;;;10.73;4.10;;;8.30;99.90;;;;;;5076409;28;20074;-71
2023/05/27 02:35:22;;;;;;;13.35;3.97;;;8.30;99.90;;;;;;5076560;28;20039;-71
2023/05/27 02:37:48;;;;;;;14.60;5.03;;;8.20;99.90;;;;;;5076412;28;20412;-71
2023/05/27 02:40:24;;;;;;;13.88;4.32;;;8.20;99.90;;;;;;5076243;28;20122;-71
2023/05/27 02:42:49;;;;;;;16.40;5.00;;;8.30;99.90;;;;;;5076283;28;20085;-71
2023/05/27 02:45:15;;;;;;;17.02;4.75;;;8.20;99.90;;;;;;5076199;28;20036;-71
2023/05/27 02:47:41;;;;;;;12.77;4.35;;;8.20;99.90;;;;;;5059801;28;20036;-71
2023/05/27 02:50:07;;;;;;;16.33;5.18;;;8.10;99.90;;;;;;5059424;28;20135;-71
2023/05/27 02:52:32;;;;;;;15.82;5.07;;;8.10;99.90;;;;;;5076076;28;20039;-71
2023/05/27 02:54:58;;;;;;;19.15;5.47;;;8.10;99.90;;;;;;5076100;28;20039;-71
2023/05/27 02:57:23;;;;;;;23.20;5.53;;;8.20;99.90;;;;;;5075966;28;20085;-71
2023/05/27 02:59:49;;;;;;;16.27;4.93;;;8.20;99.90;;;;;;5059278;28;20032;-71
2023/05/27 03:02:15;;;;;;;17.42;4.88;;;8.20;99.90;;;;;;5076056;28;20039;-71
2023/05/27 03:04:40;;;;;;;17.73;5.45;;;8.20;99.90;;;;;;5075448;28;20070;-71
2023/05/27 03:07:06;;;;;;;16.73;4.80;;;8.30;99.90;;;;;;5075864;28;20412;-71
2023/05/27 03:09:31;;;;;;;14.88;5.50;;;8.30;99.90;;;;;;5075780;28;20098;-71
2023/05/27 03:11:57;;;;;;;22.35;5.53;;;8.40;99.90;;;;;;5059069;28;20036;-71
2023/05/27 03:14:23;;;;;;;20.50;5.68;;;8.40;99.90;;;;;;5075951;28;20048;-71
2023/05/27 03:16:48;;;;;;;19.58;5.20;;;8.50;99.90;;;;;;5075580;28;20496;-71
2023/05/27 03:19:14;;;;;;;16.52;5.00;;;8.50;99.90;;;;;;5058956;28;20032;-71
2023/05/27 03:21:40;;;;;;;16.73;4.97;;;8.60;99.90;;;;;;5075710;28;20032;-71
2023/05/27 03:24:06;;;;;;;18.02;5.32;;;8.60;99.90;;;;;;5075554;28;20039;-71
2023/05/27 03:26:31;;;;;;;17.58;5.40;;;8.60;99.90;;;;;;5075527;28;20036;-71
2023/05/27 03:28:57;;;;;;;17.73;4.90;;;8.60;99.90;;;;;;5075475;28;20040;-71
2023/05/27 03:31:22;;;;;;;12.73;4.45;;;8.60;99.90;;;;;;5075302;28;20032;-71
2023/05/27 03:33:49;;;;;;;14.77;4.53;;;8.60;99.90;;;;;;5075424;28;20085;-71
2023/05/27 03:36:15;;;;;;;14.52;4.70;;;8.60;99.90;;;;;;5075488;28;20412;-71
2023/05/27 03:38:40;;;;;;;13.32;4.82;;;8.60;99.90;;;;;;5075360;28;20122;-71
2023/05/27 03:41:06;;;;;;;19.63;5.20;;;8.50;99.90;;;;;;5075498;28;20044;-71
2023/05/27 03:43:32;;;;;;;17.77;5.35;;;8.50;99.90;;;;;;5075277;28;20114;-71
2023/05/27 03:45:57;;;;;;;15.20;4.32;;;8.50;99.90;;;;;;5075266;28;20036;-71
2023/05/27 03:48:23;;;;;;;20.35;4.95;;;8.50;99.90;;;;;;5075219;28;20070;-71
2023/05/27 03:50:48;;;;;;;20.80;4.95;;;8.50;99.90;;;;;;5075101;28;20044;-71
2023/05/27 03:53:14;;;;;;;12.55;4.80;;;8.50;99.90;;;;;;5075434;28;20048;-71
2023/05/27 03:55:40;;;;;;;17.13;5.22;;;8.50;99.90;;;;;;5074997;28;20436;-71
2023/05/27 03:58:05;;;;;;;19.35;5.82;;;8.60;99.90;;;;;;5075027;28;20097;-71
2023/05/27 04:00:31;;;;;;;16.20;4.80;;;8.50;99.90;;;;;;5074911;28;20055;-71
2023/05/27 04:02:57;;;;;;;17.60;4.95;;;8.60;99.90;;;;;;5075415;28;20036;-71
2023/05/27 04:05:23;;;;;;;15.02;5.50;;;8.60;99.90;;;;;;5075091;28;20051;-71
2023/05/27 04:07:48;;;;;;;14.65;4.90;;;8.70;99.90;;;;;;5075056;28;20040;-71
2023/05/27 04:10:14;;;;;;;15.93;5.13;;;8.70;99.90;;;;;;5074994;28;20090;-71
2023/05/27 04:12:41;;;;;;;12.68;4.60;;;8.70;99.90;;;;;;5074948;28;20039;-71
2023/05/27 04:15:07;;;;;;;17.67;4.45;;;8.80;99.90;;;;;;5076063;28;20386;-71
2023/05/27 04:17:33;;;;;;;15.77;4.63;;;8.80;99.90;;;;;;5078979;28;20041;-71
2023/05/27 04:19:59;;;;;;;16.20;5.18;;;8.90;99.90;;;;;;5078966;28;20515;-71
2023/05/27 04:22:24;;;;;;;17.83;5.50;;;9.00;99.90;;;;;;5078961;28;20054;-71
2023/05/27 04:24:52;;;;;;;15.88;4.97;;;9.00;99.90;;;;;;5079187;28;20039;-71
2023/05/27 04:27:19;;;;;;;18.50;5.00;;;9.10;99.90;;;;;;5078880;28;20488;-71
2023/05/27 04:29:45;;;;;;;16.20;5.10;;;9.10;99.90;;;;;;5062201;28;20032;-71
2023/05/27 04:32:12;;;;;;;24.73;5.50;;;9.20;99.90;;;;;;5078702;28;20050;-71
2023/05/27 04:34:41;;;;;;;14.00;4.35;;;9.30;99.90;;;;;;5062121;28;20071;-71
2023/05/27 04:37:09;;;;;;;16.30;5.07;;;9.40;99.90;;;;;;5078658;28;20040;-71
2023/05/27 04:39:35;;;;;;;16.77;5.00;;;9.40;99.90;;;;;;5078620;28;20050;-71
2023/05/27 04:42:01;;;;;;;18.02;5.22;;;9.50;99.90;;;;;;5078497;28;20408;-71
2023/05/27 04:44:28;;;;;;;19.45;4.93;;;9.60;99.90;;;;;;5062132;28;20067;-71
2023/05/27 04:46:54;;;;;;;18.90;5.00;;;9.60;99.90;;;;;;5078523;28;20040;-71
2023/05/27 04:49:22;;;;;;;18.67;5.00;;;9.70;99.90;;;;;;5078694;28;20048;-71
2023/05/27 04:51:47;;;;;;;16.70;5.03;;;9.70;99.90;;;;;;5078229;28;20094;-71
2023/05/27 04:54:13;;;;;;;18.27;4.38;;;9.80;99.90;;;;;;5078328;28;20039;-71
2023/05/27 04:56:39;;;;;;;17.45;5.07;;;9.90;99.90;;;;;;5078248;28;20071;-71
2023/05/27 04:59:06;;;;;;;16.73;4.50;;;9.90;99.90;;;;;;5078551;28;20086;-71
2023/05/27 05:01:48;;;;;;;17.83;4.88;;;9.90;99.90;;;;;;5078067;28;20036;-71
2023/05/27 05:04:14;;;;;;;20.17;5.30;;;10.00;99.90;;;;;;5078295;28;20082;-71
2023/05/27 05:06:40;;;;;;;21.30;4.57;;;10.10;99.90;;;;;;5078151;28;20044;-71
2023/05/27 05:09:07;;;;;;;17.55;4.93;;;10.10;99.90;;;;;;5078398;28;20450;-71
2023/05/27 05:11:33;;;;;;;19.88;5.00;;;10.20;99.90;;;;;;5061347;28;20044;-71
2023/05/27 05:13:58;;;;;;;24.88;5.25;;;10.20;99.90;;;;;;5078050;28;20063;-71
2023/05/27 05:16:24;;;;;;;21.90;4.80;;;10.30;99.90;;;;;;5077853;28;20052;-71
2023/05/27 05:18:50;;;;;;;21.02;5.05;;;10.30;99.90;;;;;;5077955;28;20051;-71
2023/05/27 05:21:15;;;;;;;17.60;4.72;;;10.30;99.90;;;;;;5078012;28;20040;-71
2023/05/27 05:23:42;;;;;;;22.00;5.47;;;10.40;99.90;;;;;;5061168;28;20404;-71
2023/05/27 05:26:08;;;;;;;16.88;4.75;;;10.50;99.90;;;;;;5077640;28;20044;-71
2023/05/27 05:28:36;;;;;;;22.58;5.40;;;10.50;99.90;;;;;;5077268;28;20043;-71
2023/05/27 05:31:02;;;;;;;20.85;5.15;;;10.60;99.90;;;;;;5077589;28;20089;-71
2023/05/27 05:33:28;;;;;;;21.80;5.20;;;10.50;99.90;;;;;;5077878;28;20455;-71
2023/05/27 05:35:54;;;;;;;17.17;4.45;;;10.60;99.90;;;;;;5077492;28;20032;-71
2023/05/27 05:38:20;;;;;;;19.48;4.90;;;10.60;99.90;;;;;;5077492;28;20040;-71
2023/05/27 05:40:49;;;;;;;23.90;5.53;;;10.70;99.90;;;;;;5077449;28;20039;-71
2023/05/27 05:43:15;;;;;;;20.83;5.15;;;10.60;99.90;;;;;;5077513;28;20044;-71
2023/05/27 05:45:40;;;;;;;23.25;4.88;;;10.70;99.90;;;;;;5077655;28;20036;-71
2023/05/27 05:48:06;;;;;;;19.58;4.85;;;10.70;99.90;;;;;;5077377;28;20513;-71
2023/05/27 05:50:32;;;;;;;21.17;4.88;;;10.80;99.90;;;;;;5077557;28;20075;-71
2023/05/27 05:52:58;;;;;;;19.58;5.20;;;10.80;99.90;;;;;;5077269;28;20040;-71
2023/05/27 05:55:23;;;;;;;22.48;5.22;;;10.80;99.90;;;;;;5077509;28;20028;-71
2023/05/27 05:57:49;;;;;;;20.10;5.00;;;10.80;99.90;;;;;;5077181;28;20564;-70
2023/05/27 06:00:15;;;;;;;19.77;4.45;;;10.90;99.90;;;;;;5076900;28;20028;-71
2023/05/27 06:02:41;;;;;;;22.88;4.78;;;11.00;99.90;;;;;;5077079;28;20519;-71
2023/05/27 06:05:07;;;;;;;21.92;4.93;;;11.00;99.90;;;;;;5060744;28;20036;-71
2023/05/27 06:07:33;;;;;;;20.48;5.13;;;11.10;99.90;;;;;;5076859;28;20039;-71
2023/05/27 06:09:58;;;;;;;20.63;5.35;;;11.10;99.90;;;;;;5060463;28;20032;-71
2023/05/27 06:12:24;;;;;;;19.25;5.30;;;11.20;99.90;;;;;;5076893;28;20535;-71
2023/05/27 06:14:49;;;;;;;24.65;5.57;;;11.10;99.90;;;;;;5094960;28;20106;-71
2023/05/27 06:17:15;;;;;;;24.65;5.07;;;11.20;99.90;;;;;;5076742;28;20040;-71
2023/05/27 06:19:41;;;;;;;18.40;5.28;;;11.20;99.90;;;;;;5076651;28;20048;-71
2023/05/27 06:22:07;;;;;;;23.50;4.38;;;11.30;99.90;;;;;;5076659;28;20036;-71
2023/05/27 06:24:32;;;;;;;23.27;5.45;;;11.40;99.90;;;;;;5076668;28;20050;-71
2023/05/27 06:26:58;;;;;;;19.13;4.55;;;11.50;99.90;;;;;;5076610;28;20099;-71
2023/05/27 06:29:24;;;;;;;19.67;4.38;;;11.50;99.90;;;;;;5059926;28;20036;-71
2023/05/27 06:31:49;;;;;;;22.30;5.63;;;11.60;99.90;;;;;;5076392;28;20087;-71
2023/05/27 06:34:16;;;;;;;18.35;4.88;;;11.70;99.90;;;;;;5076480;28;20074;-71
2023/05/27 06:36:42;;;;;;;20.80;4.57;;;11.80;99.90;;;;;;5059681;28;20451;-71
2023/05/27 06:39:07;;;;;;;20.17;4.90;;;11.90;99.90;;;;;;5075418;28;20032;-71
2023/05/27 06:41:33;;;;;;;18.67;5.50;;;11.90;99.90;;;;;;5076317;28;20039;-71
2023/05/27 06:43:58;;;;;;;23.08;5.03;;;12.00;99.90;;;;;;5076282;28;20036;-71
2023/05/27 06:46:24;;;;;;;20.90;5.22;;;12.10;99.90;;;;;;5059846;28;20044;-71
2023/05/27 06:48:50;;;;;;;20.48;4.80;;;12.10;99.90;;;;;;5076208;28;20519;-71
2023/05/27 06:51:15;;;;;;;19.35;4.80;;;12.20;99.90;;;;;;5076060;28;20043;-71
2023/05/27 06:53:41;;;;;;;23.00;4.78;;;12.30;99.90;;;;;;5076110;28;20044;-71
2023/05/27 06:56:06;;;;;;;16.98;4.85;;;12.30;99.90;;;;;;5075987;28;20130;-71
2023/05/27 06:58:32;;;;;;;24.15;5.30;;;12.50;99.90;;;;;;5076215;28;20044;-71
2023/05/27 07:00:57;;;;;;;21.08;5.57;;;12.50;99.90;;;;;;5075866;28;20086;-71
2023/05/27 07:03:23;;;;;;;21.80;5.57;;;12.60;99.90;;;;;;5076207;28;20040;-71
2023/05/27 07:05:49;;;;;;;17.75;4.72;;;12.70;99.90;;;;;;5075779;28;20048;-71
2023/05/27 07:08:15;;;;;;;18.52;4.90;;;12.80;99.90;;;;;;5076045;28;20078;-71
2023/05/27 07:10:40;;;;;;;17.77;5.07;;;12.90;99.90;;;;;;5075677;28;20508;-71
2023/05/27 07:13:06;;;;;;;16.60;4.13;;;13.10;99.90;;;;;;5075722;28;20115;-71
2023/05/27 07:15:32;;;;;;;22.77;5.03;;;13.20;99.90;;;;;;5058947;28;20093;-71
2023/05/27 07:17:58;;;;;;;19.27;4.43;;;13.20;99.90;;;;;;5075692;28;20035;-71
2023/05/27 07:20:23;;;;;;;18.80;4.70;;;13.30;99.90;;;;;;5075947;28;20044;-71
2023/05/27 07:22:49;;;;;;;23.00;4.95;;;13.40;99.90;;;;;;5058854;28;20050;-71
2023/05/27 07:25:15;;;;;;;18.85;4.68;;;13.50;99.90;;;;;;5075539;28;20043;-71
2023/05/27 07:27:41;;;;;;;18.85;4.75;;;13.60;99.90;;;;;;5075515;28;20043;-71
2023/05/27 07:30:08;;;;;;;19.75;4.38;;;13.70;99.90;;;;;;5075710;28;20055;-71
2023/05/27 07:32:33;;;;;;;24.63;4.68;;;13.80;99.80;;;;;;5075754;28;20040;-71
2023/05/27 07:34:59;;;;;;;15.18;3.72;;;13.90;99.50;;;;;;5058697;28;20036;-71
2023/05/27 07:37:26;;;;;;;18.20;4.20;;;14.00;99.00;;;;;;5075310;28;20040;-71
2023/05/27 07:39:51;;;;;;;19.13;4.65;;;14.20;98.60;;;;;;5075507;28;20043;-71
2023/05/27 07:42:17;;;;;;;15.68;4.10;;;14.30;98.60;;;;;;5075256;28;20028;-71
2023/05/27 07:44:43;;;;;;;19.38;4.20;;;14.40;98.00;;;;;;5075518;28;20048;-71
2023/05/27 07:47:08;;;;;;;15.38;4.43;;;14.50;97.20;;;;;;5075281;28;20575;-71
2023/05/27 07:49:34;;;;;;;16.08;4.18;;;14.60;96.60;;;;;;5075191;28;20123;-72
2023/05/27 07:52:00;;;;;;;15.25;4.32;;;14.70;96.30;;;;;;5075142;28;20131;-72
2023/05/27 07:54:26;;;;;;;17.80;4.28;;;14.80;96.00;;;;;;5075182;28;20128;-72
2023/05/27 07:56:52;;;;;;;21.35;5.05;;;14.90;95.70;;;;;;5075052;28;20076;-71
2023/05/27 07:59:18;;;;;;;15.68;4.00;;;15.00;95.80;;;;;;5075393;28;20082;-71
2023/05/27 08:01:43;;;;;;;22.25;4.60;;;15.10;95.50;;;;;;5074927;28;20572;-71
2023/05/27 08:04:09;;;;;;;15.63;3.97;;;15.20;94.70;;;;;;5075077;28;20043;-71
2023/05/27 08:06:35;;;;;;;19.20;4.63;;;15.30;94.50;;;;;;5075080;28;20046;-71
2023/05/27 08:09:01;;;;;;;16.25;4.30;;;15.30;93.80;;;;;;5074978;28;20082;-71
2023/05/27 08:11:27;;;;;;;17.50;4.32;;;15.40;93.40;;;;;;5058192;28;20123;-71
2023/05/27 08:13:53;;;;;;;14.68;4.50;;;15.60;93.40;;;;;;5058310;28;20036;-71
2023/05/27 08:16:18;;;;;;;20.65;4.25;;;15.70;93.00;;;;;;5074950;28;20142;-71
2023/05/27 08:18:44;;;;;;;18.67;4.70;;;15.80;92.40;;;;;;5058215;28;20032;-71
2023/05/27 08:21:09;;;;;;;18.88;4.15;;;15.90;91.70;;;;;;5074942;28;20039;-71
2023/05/27 08:23:35;;;;;;;15.98;4.20;;;16.00;91.20;;;;;;5058288;28;20111;-71
2023/05/27 08:26:01;;;;;;;19.00;4.60;;;16.10;91.50;;;;;;5058202;28;20048;-71
2023/05/27 08:28:26;;;;;;;20.38;5.60;;;16.30;91.60;;;;;;5074852;28;20043;-71
2023/05/27 08:30:52;;;;;;;18.85;5.03;;;16.40;90.70;;;;;;5074813;28;20076;-71
2023/05/27 08:33:18;;;;;;;17.77;4.43;;;16.60;90.20;;;;;;5075057;28;20125;-71
2023/05/27 08:35:43;;;;;;;18.15;4.45;;;16.60;88.90;;;;;;5074738;28;20043;-71
2023/05/27 08:38:09;;;;;;;20.55;4.70;;;16.80;89.80;;;;;;5074662;28;20036;-71
2023/05/27 08:40:35;;;;;;;18.05;4.30;;;17.00;89.80;;;;;;5058024;28;20058;-71
2023/05/27 08:43:02;;;;;;;18.13;4.35;;;17.10;88.40;;;;;;5074945;28;20161;-71
2023/05/27 08:45:28;;;;;;;18.67;4.93;;;17.20;87.20;;;;;;5074972;28;20051;-71
2023/05/27 08:47:54;;;;;;;14.10;4.43;;;17.30;85.60;;;;;;5074607;28;20036;-71
2023/05/27 08:50:19;;;;;;;24.15;5.38;;;17.40;85.70;;;;;;5074635;28;20071;-71
2023/05/27 08:52:47;;;;;;;16.85;4.22;;;17.50;85.00;;;;;;5074564;28;20059;-71
2023/05/27 08:55:16;;;;;;;16.67;5.03;;;17.70;85.10;;;;;;5074808;28;20032;-71
2023/05/27 08:57:46;;;;;;;19.55;5.53;;;17.80;83.20;;;;;;5074515;28;20040;-71
2023/05/27 09:00:13;;;;;;;16.50;4.50;;;17.90;81.60;;;;;;5057761;28;20032;-71
2023/05/27 09:02:40;;;;;;;17.38;4.50;;;18.00;82.00;;;;;;5076613;28;20144;-72
2023/05/27 09:05:08;;;;;;;21.02;5.28;;;18.10;80.60;;;;;;5078166;28;20085;-72
2023/05/27 09:07:33;;;;;;;15.15;4.90;;;18.20;81.20;;;;;;5078119;28;20044;-72
2023/05/27 09:09:59;;;;;;;22.35;4.80;;;18.30;79.30;;;;;;5077982;28;20046;-72
2023/05/27 09:12:26;;;;;;;16.00;4.78;;;18.50;78.60;;;;;;5078067;28;20127;-73
2023/05/27 09:14:53;;;;;;;14.95;4.85;;;18.60;77.40;;;;;;5077940;28;20036;-73
2023/05/27 09:17:22;;;;;;;16.38;4.95;;;18.60;76.20;;;;;;5077822;28;20044;-73
2023/05/27 09:19:47;;;;;;;18.45;4.90;;;18.70;76.30;;;;;;5078126;28;20040;-73
2023/05/27 09:22:25;;;;;;;16.63;4.43;;;18.80;76.70;;;;;;5061066;28;20042;-73
2023/05/27 09:24:54;;;;;;;15.07;5.35;;;18.90;75.10;;;;;;5077862;28;20051;-72
2023/05/27 09:27:27;;;;;;;18.80;5.22;;;19.00;74.30;;;;;;5077794;28;20039;-72
2023/05/27 09:29:53;;;;;;;16.20;5.00;;;19.10;74.20;;;;;;5077785;28;20085;-72
2023/05/27 09:32:27;;;;;;;16.02;5.25;;;19.20;74.30;;;;;;5077724;28;20036;-72
2023/05/27 09:34:56;;;;;;;18.08;5.00;;;19.40;72.50;;;;;;5077619;28;20408;-72
2023/05/27 09:37:32;;;;;;;15.70;4.85;;;19.50;73.80;;;;;;5060843;28;20040;-73
2023/05/27 09:39:59;;;;;;;17.15;5.07;;;19.70;73.10;;;;;;5060802;28;20067;-73
2023/05/27 09:42:25;;;;;;;14.18;4.53;;;19.90;72.50;;;;;;5077781;28;20082;-73
2023/05/27 09:44:53;;;;;;;17.48;5.05;;;20.00;71.90;;;;;;5077479;28;20500;-73
2023/05/27 09:47:22;;;;;;;16.98;4.68;;;20.00;71.50;;;;;;5077402;28;20089;-73
2023/05/27 09:49:51;;;;;;;16.35;4.80;;;20.00;71.60;;;;;;5077385;28;20130;-73
2023/05/27 09:52:20;;;;;;;19.88;6.13;;;20.10;71.10;;;;;;5077271;28;20048;-73
2023/05/27 09:54:47;;;;;;;15.82;5.75;;;20.10;69.50;;;;;;5060531;28;20032;-73
2023/05/27 09:57:14;;;;;;;16.02;5.25;;;20.20;69.70;;;;;;5077113;28;20085;-73
2023/05/27 09:59:41;;;;;;;19.15;5.07;;;20.30;69.20;;;;;;5077211;28;20028;-73
2023/05/27 10:02:07;;;;;;;17.42;4.57;;;20.30;69.50;;;;;;5076929;28;20036;-73
2023/05/27 10:04:33;;;;;;;17.17;4.85;;;20.40;70.20;;;;;;5077115;28;20416;-72
2023/05/27 10:07:01;;;;;;;15.02;4.60;;;20.60;68.40;;;;;;5077031;28;20055;-72
2023/05/27 10:09:27;;;;;;;20.23;4.70;;;20.60;67.60;;;;;;5060520;28;20123;-73
2023/05/27 10:11:54;;;;;;;16.38;4.80;;;20.70;69.20;;;;;;5076916;28;20119;-72
2023/05/27 10:14:20;;;;;;;16.83;4.95;;;20.80;67.60;;;;;;5076787;28;20044;-72
2023/05/27 10:16:55;;;;;;;18.25;5.20;;;20.90;67.50;;;;;;5076807;28;20040;-72
2023/05/27 10:19:21;;;;;;;18.08;5.43;;;21.00;67.80;;;;;;5076740;28;20561;-72
2023/05/27 10:21:47;;;;;;;17.50;5.18;;;21.10;67.30;;;;;;5076723;28;20071;-72
2023/05/27 10:24:13;;;;;;;18.50;4.95;;;21.20;65.80;;;;;;5060029;28;20113;-72
2023/05/27 10:26:40;;;;;;;14.07;5.03;;;21.20;65.60;;;;;;5076974;28;20104;-73
2023/05/27 10:29:19;;;;;;;14.43;4.55;;;21.40;65.40;;;;;;5060246;28;20555;-73
2023/05/27 10:31:46;;;;;;;19.05;4.93;;;21.50;65.20;;;;;;5076692;28;20496;-73
2023/05/27 10:34:12;;;;;;;17.42;4.47;;;21.60;64.90;;;;;;5076736;28;20403;-73
2023/05/27 10:36:38;;;;;;;16.40;4.45;;;21.70;64.10;;;;;;5076548;28;20061;-73
2023/05/27 10:39:11;;;;;;;18.05;5.90;;;21.80;63.40;;;;;;5059766;28;20404;-73
2023/05/27 10:41:40;;;;;;;16.88;5.38;;;21.90;64.50;;;;;;5059907;28;20499;-72
2023/05/27 10:44:05;;;;;;;13.73;5.05;;;22.00;62.50;;;;;;5059649;28;20047;-72
2023/05/27 10:46:40;;;;;;;14.38;5.20;;;22.10;62.70;;;;;;5059609;28;20044;-72
2023/05/27 10:49:22;;;;;;;16.15;4.82;;;22.20;59.90;;;;;;5076168;28;20071;-72
2023/05/27 10:51:48;;;;;;;19.73;5.40;;;22.30;61.20;;;;;;5059761;28;20036;-72
2023/05/27 10:54:17;;;;;;;14.05;4.38;;;22.50;61.10;;;;;;5076072;28;20125;-72
2023/05/27 10:56:52;;;;;;;15.68;4.95;;;22.60;60.60;;;;;;5075991;28;20386;-72
2023/05/27 10:59:22;;;;;;;17.48;5.10;;;22.70;58.90;;;;;;5059311;28;20028;-73
2023/05/27 11:01:55;;;;;;;13.60;4.57;;;22.70;59.50;;;;;;5059044;28;20032;-73
2023/05/27 11:04:21;;;;;;;13.15;4.30;;;22.90;59.70;;;;;;5059248;28;20473;-73
2023/05/27 11:06:58;;;;;;;15.30;4.55;;;23.00;59.00;;;;;;5059384;28;20040;-73
2023/05/27 11:09:24;;;;;;;14.88;4.20;;;23.20;59.70;;;;;;5075795;28;20123;-73
2023/05/27 11:11:50;;;;;;;17.77;4.88;;;23.40;58.20;;;;;;5094108;28;20071;-73
2023/05/27 11:14:19;;;;;;;13.55;4.32;;;23.40;59.00;;;;;;5075919;28;20101;-73
2023/05/27 11:16:52;;;;;;;18.88;5.00;;;23.40;57.90;;;;;;5075715;28;20407;-72
2023/05/27 11:19:21;;;;;;;;;;;23.50;57.20;;;;;;5076377;28;20036;-73
2023/05/27 11:21:48;;;;;;;14.15;4.60;;;23.50;53.40;;;;;;5075437;28;20003;-72
2023/05/27 11:24:17;;;;;;;13.27;4.57;;;23.60;57.40;;;;;;5075247;28;20036;-73
2023/05/27 11:26:46;;;;;;;13.98;4.25;;;23.80;57.90;;;;;;5075253;28;20139;-73
2023/05/27 11:29:12;;;;;;;14.02;4.55;;;23.90;56.50;;;;;;5075699;28;20040;-73
2023/05/27 11:31:41;;;;;;;15.05;4.20;;;23.90;56.40;;;;;;5075610;28;20086;-73
2023/05/27 11:34:14;;;;;;;15.98;4.70;;;24.00;56.80;;;;;;5058689;28;20036;-73
2023/05/27 11:36:40;;;;;;;15.60;4.40;;;24.10;55.90;;;;;;5075452;28;20118;-73
2023/05/27 11:39:11;;;;;;;22.80;5.57;;;24.20;56.40;;;;;;5058653;28;20081;-73
2023/05/27 11:41:51;;;;;;;17.98;5.40;;;24.30;57.00;;;;;;5075202;28;20040;-72
2023/05/27 11:44:18;;;;;;;18.65;4.47;;;24.40;54.50;;;;;;5058656;28;20051;-72
2023/05/27 11:46:45;;;;;;;14.57;4.50;;;24.50;55.90;;;;;;5075484;28;20051;-72
2023/05/27 11:49:16;;;;;;;15.85;4.63;;;24.50;54.90;;;;;;5075459;28;20123;-72
2023/05/27 11:51:43;;;;;;;13.00;4.60;;;24.40;54.40;;;;;;5075433;28;20048;-72
2023/05/27 11:54:23;;;;;;;15.18;4.60;;;24.50;53.60;;;;;;5075424;28;20036;-72
2023/05/27 11:56:50;;;;;;;13.07;4.90;;;24.40;53.00;;;;;;5058326;28;20044;-71
2023/05/27 11:59:16;;;;;;;15.73;4.35;;;24.40;54.50;;;;;;5075308;28;20090;-71
2023/05/27 12:01:42;;;;;;;12.85;4.43;;;24.50;54.20;;;;;;5074990;28;20084;-71
2023/05/27 12:04:08;;;;;;;13.07;4.00;;;24.70;53.90;;;;;;5058351;28;20043;-71
2023/05/27 12:06:34;;;;;;;11.75;4.18;;;24.80;54.30;;;;;;5075376;28;20048;-71
2023/05/27 12:09:00;;;;;;;12.82;4.70;;;24.90;52.80;;;;;;5058363;28;20039;-71
2023/05/27 12:11:26;;;;;;;22.20;5.72;;;25.00;52.20;;;;;;5074887;28;20036;-72
2023/05/27 12:13:53;;;;;;;12.07;4.65;;;25.00;51.40;;;;;;5075056;28;20048;-72
2023/05/27 12:16:19;;;;;;;14.77;4.85;;;25.00;51.20;;;;;;5058463;28;20542;-72
2023/05/27 12:18:45;;;;;;;13.38;5.05;;;25.00;50.90;;;;;;5075125;28;20082;-72
2023/05/27 12:21:11;;;;;;;13.43;4.45;;;24.80;50.60;;;;;;5058162;28;20044;-73
2023/05/27 12:23:36;;;;;;;14.65;4.95;;;24.80;52.30;;;;;;5074958;28;20040;-73
2023/05/27 12:26:02;;;;;;;11.60;4.00;;;24.80;52.50;;;;;;5058165;28;20039;-73
2023/05/27 12:28:28;;;;;;;14.90;5.32;;;24.90;52.90;;;;;;5058213;28;20036;-73
2023/05/27 12:30:53;;;;;;;12.68;4.82;;;25.10;52.20;;;;;;5074761;28;20032;-73
2023/05/27 12:33:19;;;;;;;15.95;4.70;;;25.10;52.70;;;;;;5074843;28;20042;-73
2023/05/27 12:35:44;;;;;;;12.00;4.30;;;25.20;52.60;;;;;;5074669;28;20036;-73
2023/05/27 12:38:10;;;;;;;15.00;4.40;;;25.40;52.70;;;;;;5077594;28;20032;-73